University of Texas, Texas
Current Conditions -  °F | °C
As of 9:51 PM on Wednesday 28 Jan 2015 (Local Time) from KATT Reporting Station
Clear Clear  
Wind Chill: 64°   Ceiling: Unl
Heat Index: 64°   Visibility: 10mi
Dew Point: 44°   Wind: 6mph
Humidity: 48%   Direction: 190°S
Pressure: 30.12"   Gusts: NA
Location:  30.2843°N, 97.7442°W
Report Text: KATT 290351Z AUTO 19005KT 10SM CLR 18/07 A3012 RMK AO2 SLP196 T01780067
Loading
Personal Weather Stations






























Interactive Weather Map New forecast layout! Learn more

10-Day Weather Forecast

Advertisements
Track Severe Weather on mobile